Time;durP1;ratioP1;P1;durP2;ratioP2;P2;SDS_P1;SDS_P2;PMS_P1;PMS_P2;Temp;Humidity;BMP_temperature;BMP_pressure;BME280_temperature;BME280_humidity;BME280_pressure;Samples;Min_cycle;Max_cycle;Signal;HPM_P1;HPM_P2
2023/06/21 00:01:41;;;;;;;18.25;16.42;;;;;;;;;;4975460;28;20678;-63
2023/06/21 00:04:07;;;;;;;19.65;17.65;;;;;;;;;;4978965;28;20587;-62
2023/06/21 00:06:34;;;;;;;20.92;18.75;;;;;;;;;;5002569;28;20239;-63
2023/06/21 00:09:00;;;;;;;21.42;19.23;;;;;;;;;;4992898;28;20217;-63
2023/06/21 00:11:25;;;;;;;19.67;16.83;;;;;;;;;;4982832;28;20221;-63
2023/06/21 00:13:54;;;;;;;18.02;16.13;;;;;;;;;;5002705;28;20706;-64
2023/06/21 00:16:19;;;;;;;19.35;16.92;;;;;;;;;;4985191;28;20221;-62
2023/06/21 00:18:45;;;;;;;18.80;16.80;;;;;;;;;;4981065;28;20844;-63
2023/06/21 00:21:10;;;;;;;18.55;15.68;;;;;;;;;;4975131;28;20217;-63
2023/06/21 00:23:35;;;;;;;18.10;15.60;;;;;;;;;;4974455;28;20221;-63
2023/06/21 00:26:01;;;;;;;17.77;15.88;;;;;;;;;;4976648;28;20248;-63
2023/06/21 00:28:26;;;;;;;15.45;13.32;;;;;;;;;;4983307;28;20565;-64
2023/06/21 00:30:52;;;;;;;15.23;13.63;;;;;;;;;;4982592;28;20711;-64
2023/06/21 00:33:17;;;;;;;13.35;12.05;;;;;;;;;;4982519;28;20700;-63
2023/06/21 00:35:42;;;;;;;15.05;13.45;;;;;;;;;;4983158;28;20221;-63
2023/06/21 00:38:08;;;;;;;13.70;11.70;;;;;;;;;;4982001;28;20260;-63
2023/06/21 00:40:33;;;;;;;15.60;12.85;;;;;;;;;;4982893;28;20448;-63
2023/06/21 00:42:58;;;;;;;15.00;11.95;;;;;;;;;;4975899;28;20267;-62
2023/06/21 00:45:23;;;;;;;13.02;11.63;;;;;;;;;;4976667;28;20895;-63
2023/06/21 00:47:49;;;;;;;12.32;10.98;;;;;;;;;;4992616;28;20231;-63
2023/06/21 00:50:15;;;;;;;11.10;9.82;;;;;;;;;;5000800;28;20216;-63
2023/06/21 00:52:42;;;;;;;12.05;10.55;;;;;;;;;;5001713;28;20217;-63
2023/06/21 00:55:08;;;;;;;11.77;10.38;;;;;;;;;;4985028;28;20208;-63
2023/06/21 00:57:33;;;;;;;11.38;10.18;;;;;;;;;;4992462;28;20213;-64
2023/06/21 00:59:59;;;;;;;11.45;9.30;;;;;;;;;;5010499;28;20278;-64
2023/06/21 01:02:24;;;;;;;11.90;9.95;;;;;;;;;;5011805;28;20209;-63
2023/06/21 01:04:49;;;;;;;11.23;9.95;;;;;;;;;;5011651;28;20212;-64
2023/06/21 01:07:29;;;;;;;11.02;9.57;;;;;;;;;;5011358;28;20236;-63
2023/06/21 01:09:59;;;;;;;11.30;10.10;;;;;;;;;;5027842;28;20207;-64
2023/06/21 01:12:37;;;;;;;11.50;9.77;;;;;;;;;;5029457;28;20636;-64
2023/06/21 01:15:04;;;;;;;13.00;10.63;;;;;;;;;;5023579;28;20205;-63
2023/06/21 01:17:31;;;;;;;13.07;9.43;;;;;;;;;;5015589;28;20216;-64
2023/06/21 01:19:56;;;;;;;10.60;9.45;;;;;;;;;;5013697;28;20220;-64
2023/06/21 01:22:22;;;;;;;11.18;9.93;;;;;;;;;;5015337;28;20212;-64
2023/06/21 01:24:55;;;;;;;11.55;9.52;;;;;;;;;;5015787;28;20221;-64
2023/06/21 01:27:34;;;;;;;14.52;10.40;;;;;;;;;;5013136;28;20228;-64
2023/06/21 01:30:00;;;;;;;14.63;10.95;;;;;;;;;;5014492;28;20242;-65
2023/06/21 01:32:27;;;;;;;12.07;10.73;;;;;;;;;;5014022;28;20754;-64
2023/06/21 01:34:53;;;;;;;12.77;10.75;;;;;;;;;;5013262;28;20227;-64
2023/06/21 01:37:19;;;;;;;12.48;10.50;;;;;;;;;;5027286;28;20220;-63
2023/06/21 01:39:44;;;;;;;13.55;10.80;;;;;;;;;;5035179;28;21073;-64
2023/06/21 01:42:10;;;;;;;12.88;10.35;;;;;;;;;;5034145;28;20222;-64
2023/06/21 01:44:35;;;;;;;13.02;10.60;;;;;;;;;;5015567;28;20684;-64
2023/06/21 01:47:00;;;;;;;13.10;11.80;;;;;;;;;;4997259;28;20696;-62
2023/06/21 01:49:26;;;;;;;12.93;10.52;;;;;;;;;;4995007;28;20540;-64
2023/06/21 01:51:51;;;;;;;12.07;10.70;;;;;;;;;;4995555;28;20308;-64
2023/06/21 01:54:16;;;;;;;13.52;11.70;;;;;;;;;;4994574;28;20217;-64
2023/06/21 01:56:42;;;;;;;13.40;11.13;;;;;;;;;;5022472;28;20208;-65
2023/06/21 01:59:08;;;;;;;14.32;12.77;;;;;;;;;;5014683;28;20412;-64
2023/06/21 02:01:33;;;;;;;14.95;13.32;;;;;;;;;;5014175;28;20212;-64
2023/06/21 02:03:59;;;;;;;15.00;13.40;;;;;;;;;;5014888;28;20220;-64
2023/06/21 02:06:26;;;;;;;16.77;15.02;;;;;;;;;;5014432;28;20214;-64
2023/06/21 02:08:51;;;;;;;16.50;13.80;;;;;;;;;;5021267;28;20619;-64
2023/06/21 02:11:18;;;;;;;17.13;15.35;;;;;;;;;;5034290;28;20215;-64
2023/06/21 02:13:44;;;;;;;17.77;15.90;;;;;;;;;;5034859;28;20622;-64
2023/06/21 02:16:11;;;;;;;18.42;16.55;;;;;;;;;;5017527;28;20216;-64
2023/06/21 02:18:36;;;;;;;18.25;16.42;;;;;;;;;;5014720;28;20680;-64
2023/06/21 02:21:02;;;;;;;17.70;15.88;;;;;;;;;;5014181;28;20216;-63
2023/06/21 02:23:28;;;;;;;18.80;16.90;;;;;;;;;;5013919;28;20251;-64
2023/06/21 02:25:53;;;;;;;19.08;16.98;;;;;;;;;;5014720;28;20271;-64
2023/06/21 02:28:20;;;;;;;18.52;16.73;;;;;;;;;;5012795;28;20227;-64
2023/06/21 02:30:45;;;;;;;19.77;17.73;;;;;;;;;;5013973;28;20224;-64
2023/06/21 02:33:11;;;;;;;20.42;18.25;;;;;;;;;;5014033;28;20319;-63
2023/06/21 02:35:36;;;;;;;21.42;19.10;;;;;;;;;;5014388;28;20266;-64
2023/06/21 02:38:01;;;;;;;21.23;19.05;;;;;;;;;;5013243;28;20295;-64
2023/06/21 02:40:26;;;;;;;21.63;19.42;;;;;;;;;;5014440;28;20315;-64
2023/06/21 02:42:52;;;;;;;23.30;21.00;;;;;;;;;;5014209;28;20282;-65
2023/06/21 02:45:18;;;;;;;19.75;17.75;;;;;;;;;;5013255;28;20327;-65
2023/06/21 02:47:44;;;;;;;22.67;19.58;;;;;;;;;;5014010;28;20221;-65
2023/06/21 02:50:09;;;;;;;22.52;19.80;;;;;;;;;;5013849;28;20227;-64
2023/06/21 02:52:34;;;;;;;24.92;22.42;;;;;;;;;;5013324;28;20219;-64
2023/06/21 02:55:01;;;;;;;22.92;20.63;;;;;;;;;;5017371;28;20214;-64
2023/06/21 02:57:26;;;;;;;25.70;22.58;;;;;;;;;;5032803;28;20212;-65
2023/06/21 02:59:51;;;;;;;26.00;23.27;;;;;;;;;;5033829;28;20243;-65
2023/06/21 03:02:17;;;;;;;25.67;22.25;;;;;;;;;;5033321;28;20223;-65
2023/06/21 03:04:43;;;;;;;27.50;24.70;;;;;;;;;;5032968;28;20641;-64
2023/06/21 03:07:08;;;;;;;27.58;24.75;;;;;;;;;;5033106;28;20716;-64
2023/06/21 03:09:33;;;;;;;26.52;23.77;;;;;;;;;;5028658;28;20211;-64
2023/06/21 03:12:00;;;;;;;29.08;26.17;;;;;;;;;;5032802;28;20207;-65
2023/06/21 03:14:25;;;;;;;28.35;25.55;;;;;;;;;;5031326;28;20215;-64
2023/06/21 03:16:50;;;;;;;31.70;28.40;;;;;;;;;;5013644;28;20217;-64
2023/06/21 03:19:17;;;;;;;32.90;29.30;;;;;;;;;;5012311;28;20220;-65
2023/06/21 03:21:43;;;;;;;32.72;29.27;;;;;;;;;;5013621;28;20213;-64
2023/06/21 03:24:08;;;;;;;33.97;30.20;;;;;;;;;;5013122;28;20303;-64
2023/06/21 03:26:35;;;;;;;32.72;28.85;;;;;;;;;;5012946;28;20213;-64
2023/06/21 03:29:02;;;;;;;36.33;31.27;;;;;;;;;;5013395;28;20224;-64
2023/06/21 03:31:27;;;;;;;39.90;33.88;;;;;;;;;;5013091;28;20612;-64
2023/06/21 03:33:53;;;;;;;37.78;32.78;;;;;;;;;;5012775;28;20212;-64
2023/06/21 03:36:18;;;;;;;36.30;31.83;;;;;;;;;;5013056;28;20596;-64
2023/06/21 03:38:43;;;;;;;35.30;31.58;;;;;;;;;;5013039;28;20673;-65
2023/06/21 03:41:08;;;;;;;36.83;30.90;;;;;;;;;;5028478;28;20223;-64
2023/06/21 03:43:34;;;;;;;38.25;33.45;;;;;;;;;;5008753;28;20213;-65
2023/06/21 03:46:00;;;;;;;37.97;33.85;;;;;;;;;;4990597;28;20217;-65
2023/06/21 03:48:25;;;;;;;38.78;33.53;;;;;;;;;;4982930;28;20217;-64
2023/06/21 03:50:50;;;;;;;37.28;30.52;;;;;;;;;;4999548;28;20450;-65
2023/06/21 03:53:16;;;;;;;32.15;28.65;;;;;;;;;;4975737;28;20667;-65
2023/06/21 03:55:43;;;;;;;34.70;30.13;;;;;;;;;;4975763;28;20625;-65
2023/06/21 03:58:08;;;;;;;34.65;29.85;;;;;;;;;;4978249;28;20220;-63
2023/06/21 04:00:34;;;;;;;37.00;31.02;;;;;;;;;;4992333;28;20217;-65
2023/06/21 04:02:59;;;;;;;33.88;29.80;;;;;;;;;;5002210;28;20231;-65
2023/06/21 04:05:24;;;;;;;35.00;30.10;;;;;;;;;;5002334;28;20208;-65
2023/06/21 04:07:50;;;;;;;39.20;32.92;;;;;;;;;;4997692;28;20217;-65
2023/06/21 04:10:16;;;;;;;37.28;33.40;;;;;;;;;;4982957;28;20220;-64
2023/06/21 04:12:41;;;;;;;34.42;30.73;;;;;;;;;;4983167;28;20228;-65
2023/06/21 04:15:07;;;;;;;34.60;30.88;;;;;;;;;;4975064;28;20565;-64
2023/06/21 04:17:32;;;;;;;39.25;32.10;;;;;;;;;;4983363;28;20219;-65
2023/06/21 04:19:58;;;;;;;37.40;31.10;;;;;;;;;;4994763;28;20228;-65
2023/06/21 04:22:23;;;;;;;33.97;29.45;;;;;;;;;;5001038;28;20213;-65
2023/06/21 04:24:49;;;;;;;36.03;31.88;;;;;;;;;;5002522;28;20986;-64
2023/06/21 04:27:14;;;;;;;37.05;31.35;;;;;;;;;;5001911;28;20224;-64
2023/06/21 04:29:40;;;;;;;36.10;31.35;;;;;;;;;;5001854;28;20219;-64
2023/06/21 04:32:06;;;;;;;36.65;30.90;;;;;;;;;;5001911;28;20730;-64
2023/06/21 04:34:33;;;;;;;34.25;30.35;;;;;;;;;;5002367;28;20278;-64
2023/06/21 04:36:58;;;;;;;34.90;29.80;;;;;;;;;;4996818;28;20204;-64
2023/06/21 04:39:23;;;;;;;33.75;30.13;;;;;;;;;;4993759;28;20216;-64
2023/06/21 04:41:52;;;;;;;33.13;28.80;;;;;;;;;;4994198;28;20504;-64
2023/06/21 04:44:17;;;;;;;33.58;29.98;;;;;;;;;;4998754;28;20204;-64
2023/06/21 04:46:44;;;;;;;35.38;29.52;;;;;;;;;;5002009;28;20220;-64
2023/06/21 04:49:09;;;;;;;36.92;31.80;;;;;;;;;;5002022;28;20224;-65
2023/06/21 04:51:34;;;;;;;37.95;30.35;;;;;;;;;;4996157;28;20231;-64
2023/06/21 04:54:00;;;;;;;37.85;31.15;;;;;;;;;;4987321;28;20268;-64
2023/06/21 04:56:26;;;;;;;38.03;31.10;;;;;;;;;;4986682;28;20226;-64
2023/06/21 04:58:51;;;;;;;37.42;32.25;;;;;;;;;;4983203;28;20224;-64
2023/06/21 05:01:17;;;;;;;32.20;28.70;;;;;;;;;;4978582;28;20216;-64
2023/06/21 05:03:47;;;;;;;33.13;28.73;;;;;;;;;;4978810;28;20224;-64
2023/06/21 05:06:13;;;;;;;32.83;29.40;;;;;;;;;;4999776;28;20243;-65
2023/06/21 05:08:38;;;;;;;36.07;31.60;;;;;;;;;;4994731;28;20424;-64
2023/06/21 05:11:03;;;;;;;36.53;31.48;;;;;;;;;;5002873;28;20219;-64
2023/06/21 05:13:29;;;;;;;41.05;34.03;;;;;;;;;;5004640;28;20220;-64
2023/06/21 05:15:54;;;;;;;41.28;33.35;;;;;;;;;;4992491;28;20256;-64
2023/06/21 05:18:19;;;;;;;37.42;33.20;;;;;;;;;;4985432;28;21055;-63
2023/06/21 05:20:45;;;;;;;38.63;34.15;;;;;;;;;;4991711;28;20610;-65
2023/06/21 05:23:10;;;;;;;41.13;34.67;;;;;;;;;;4978731;28;20213;-64
2023/06/21 05:25:35;;;;;;;40.33;34.10;;;;;;;;;;4977600;28;20255;-64
2023/06/21 05:28:04;;;;;;;38.40;33.95;;;;;;;;;;4978628;28;20333;-64
2023/06/21 05:30:29;;;;;;;38.50;34.30;;;;;;;;;;4986038;28;20239;-64
2023/06/21 05:32:55;;;;;;;39.83;35.50;;;;;;;;;;4985532;28;20688;-64
2023/06/21 05:35:20;;;;;;;42.42;34.35;;;;;;;;;;4985382;28;20220;-64
2023/06/21 05:37:45;;;;;;;39.88;34.53;;;;;;;;;;5004925;28;20270;-64
2023/06/21 05:40:11;;;;;;;39.55;35.30;;;;;;;;;;4993789;28;20239;-63
2023/06/21 05:42:37;;;;;;;41.17;36.23;;;;;;;;;;5004588;28;20465;-64
2023/06/21 05:45:02;;;;;;;39.65;35.25;;;;;;;;;;4999674;28;20448;-64
2023/06/21 05:47:27;;;;;;;40.53;36.25;;;;;;;;;;4978250;28;20221;-64
2023/06/21 05:49:53;;;;;;;39.97;35.58;;;;;;;;;;4978281;28;20807;-65
2023/06/21 05:52:18;;;;;;;40.47;36.10;;;;;;;;;;4990692;28;20224;-64
2023/06/21 05:54:44;;;;;;;40.40;36.00;;;;;;;;;;4985318;28;20611;-65
2023/06/21 05:57:10;;;;;;;41.97;35.83;;;;;;;;;;4985366;28;20727;-64
2023/06/21 05:59:36;;;;;;;39.63;35.15;;;;;;;;;;4985563;28;20244;-64
2023/06/21 06:02:01;;;;;;;41.88;36.50;;;;;;;;;;4981759;28;21578;-64
2023/06/21 06:04:27;;;;;;;38.90;34.70;;;;;;;;;;5025872;28;20259;-65
2023/06/21 06:06:52;;;;;;;37.83;33.25;;;;;;;;;;5019390;28;20208;-65
2023/06/21 06:09:17;;;;;;;42.53;35.50;;;;;;;;;;5013627;28;20251;-64
2023/06/21 06:11:43;;;;;;;40.85;36.45;;;;;;;;;;5012296;28;20617;-65
2023/06/21 06:14:09;;;;;;;41.05;36.65;;;;;;;;;;5014170;28;20592;-66
2023/06/21 06:16:35;;;;;;;41.05;35.22;;;;;;;;;;5015420;28;20216;-65
2023/06/21 06:19:00;;;;;;;37.35;33.28;;;;;;;;;;5014647;28;20577;-65
2023/06/21 06:21:25;;;;;;;37.75;33.78;;;;;;;;;;5008738;28;20212;-66
2023/06/21 06:23:52;;;;;;;37.75;33.80;;;;;;;;;;5013529;28;20217;-64
2023/06/21 06:26:22;;;;;;;37.90;33.88;;;;;;;;;;5014038;28;20254;-63
2023/06/21 06:28:48;;;;;;;38.22;34.33;;;;;;;;;;5013918;28;20256;-64
2023/06/21 06:31:13;;;;;;;37.50;33.53;;;;;;;;;;5014235;28;20263;-63
2023/06/21 06:33:39;;;;;;;42.83;37.05;;;;;;;;;;5014421;28;20224;-63
2023/06/21 06:36:05;;;;;;;42.40;38.17;;;;;;;;;;5013210;28;20208;-62
2023/06/21 06:38:30;;;;;;;42.47;38.17;;;;;;;;;;5013193;28;20213;-62
2023/06/21 06:40:55;;;;;;;43.03;38.70;;;;;;;;;;5014366;28;20240;-62
2023/06/21 06:43:20;;;;;;;38.90;35.00;;;;;;;;;;5012873;28;20247;-62
2023/06/21 06:45:46;;;;;;;41.90;37.55;;;;;;;;;;5014297;28;20599;-62
2023/06/21 06:48:11;;;;;;;39.97;35.83;;;;;;;;;;5013602;28;20570;-64
2023/06/21 06:50:38;;;;;;;38.22;34.25;;;;;;;;;;5013522;28;20208;-62
2023/06/21 06:53:05;;;;;;;39.53;35.70;;;;;;;;;;4994239;28;20237;-62
2023/06/21 06:55:30;;;;;;;36.92;33.42;;;;;;;;;;5008681;28;20204;-61
2023/06/21 06:57:58;;;;;;;36.55;32.85;;;;;;;;;;5033056;28;20230;-62
2023/06/21 07:00:23;;;;;;;37.28;33.78;;;;;;;;;;5033404;28;20208;-62
2023/06/21 07:02:48;;;;;;;37.17;33.55;;;;;;;;;;5021147;28;20224;-61
2023/06/21 07:05:14;;;;;;;33.67;30.30;;;;;;;;;;5012549;28;20604;-62
2023/06/21 07:07:39;;;;;;;35.17;31.77;;;;;;;;;;4997089;28;20262;-62
2023/06/21 07:10:05;;;;;;;34.47;31.08;;;;;;;;;;5017377;28;20209;-62
2023/06/21 07:12:30;;;;;;;33.53;30.33;;;;;;;;;;5013036;28;20211;-62
2023/06/21 07:14:55;;;;;;;33.05;29.70;;;;;;;;;;5007436;28;20213;-62
2023/06/21 07:17:23;;;;;;;33.67;30.45;;;;;;;;;;4993692;28;20216;-62
2023/06/21 07:19:48;;;;;;;35.58;32.13;;;;;;;;;;4993323;28;20739;-61
2023/06/21 07:22:14;;;;;;;34.70;31.42;;;;;;;;;;4993683;28;20214;-61
2023/06/21 07:24:39;;;;;;;34.35;31.05;;;;;;;;;;4993183;28;20213;-61
2023/06/21 07:27:04;;;;;;;33.17;29.90;;;;;;;;;;4992041;28;20224;-61
2023/06/21 07:29:30;;;;;;;30.10;27.20;;;;;;;;;;4993836;28;20214;-62
2023/06/21 07:31:55;;;;;;;33.88;30.67;;;;;;;;;;4993200;28;20213;-62
2023/06/21 07:34:20;;;;;;;35.38;31.98;;;;;;;;;;4993176;28;20205;-62
2023/06/21 07:36:46;;;;;;;38.28;34.45;;;;;;;;;;4993854;28;20217;-62
2023/06/21 07:39:13;;;;;;;39.42;35.63;;;;;;;;;;4992534;28;20216;-61
2023/06/21 07:41:38;;;;;;;39.55;35.85;;;;;;;;;;4993418;28;20233;-62
2023/06/21 07:44:03;;;;;;;40.92;37.03;;;;;;;;;;4993075;28;20212;-62
2023/06/21 07:46:29;;;;;;;39.65;35.38;;;;;;;;;;4992855;28;20213;-61
2023/06/21 07:48:54;;;;;;;40.85;37.15;;;;;;;;;;4993410;28;20225;-61
2023/06/21 07:51:19;;;;;;;40.40;36.60;;;;;;;;;;4993164;28;20217;-61
2023/06/21 07:53:45;;;;;;;38.45;34.85;;;;;;;;;;4992790;28;20213;-61
2023/06/21 07:56:14;;;;;;;39.72;36.03;;;;;;;;;;5018533;28;20239;-61
2023/06/21 07:58:40;;;;;;;39.88;36.00;;;;;;;;;;5032472;28;20216;-61
2023/06/21 08:01:05;;;;;;;40.72;36.90;;;;;;;;;;5031466;28;20274;-62
2023/06/21 08:03:31;;;;;;;43.03;39.08;;;;;;;;;;5032622;28;20273;-61
2023/06/21 08:05:56;;;;;;;43.50;39.33;;;;;;;;;;5032405;28;20212;-61
2023/06/21 08:08:21;;;;;;;43.03;38.88;;;;;;;;;;5027024;28;20275;-61
2023/06/21 08:10:47;;;;;;;39.00;35.30;;;;;;;;;;5012857;28;20304;-61
2023/06/21 08:13:12;;;;;;;37.35;33.75;;;;;;;;;;5012201;28;20208;-61
2023/06/21 08:15:37;;;;;;;35.75;32.45;;;;;;;;;;5011960;28;20304;-61
2023/06/21 08:18:03;;;;;;;37.53;34.03;;;;;;;;;;5012444;28;20680;-61
2023/06/21 08:20:28;;;;;;;38.33;34.33;;;;;;;;;;5012312;28;20204;-61
2023/06/21 08:22:53;;;;;;;38.25;34.47;;;;;;;;;;5011888;28;20675;-61
2023/06/21 08:25:19;;;;;;;36.92;33.55;;;;;;;;;;5010871;28;20221;-61
2023/06/21 08:27:44;;;;;;;37.00;33.47;;;;;;;;;;5012480;28;20239;-61
2023/06/21 08:30:10;;;;;;;36.85;33.40;;;;;;;;;;5011065;28;20216;-61
2023/06/21 08:32:35;;;;;;;35.63;32.33;;;;;;;;;;5012537;28;20207;-62
2023/06/21 08:35:00;;;;;;;33.30;30.10;;;;;;;;;;5011145;28;20232;-61
2023/06/21 08:37:26;;;;;;;34.05;30.92;;;;;;;;;;5012659;28;20208;-61
2023/06/21 08:39:52;;;;;;;34.70;31.50;;;;;;;;;;5012308;28;20212;-61
2023/06/21 08:42:18;;;;;;;33.88;30.75;;;;;;;;;;5011337;28;20302;-61
2023/06/21 08:44:45;;;;;;;35.05;31.85;;;;;;;;;;5012295;28;20671;-61
2023/06/21 08:47:10;;;;;;;29.50;26.75;;;;;;;;;;5011772;28;20256;-61
2023/06/21 08:49:37;;;;;;;29.65;26.80;;;;;;;;;;5011697;28;20709;-61
2023/06/21 08:52:02;;;;;;;27.33;24.42;;;;;;;;;;5010535;28;20216;-61
2023/06/21 08:54:29;;;;;;;31.90;28.85;;;;;;;;;;5012347;28;20731;-61
2023/06/21 08:56:56;;;;;;;32.90;29.50;;;;;;;;;;5030278;28;20214;-61
2023/06/21 08:59:36;;;;;;;33.47;30.15;;;;;;;;;;5030203;28;20743;-61
2023/06/21 09:02:05;;;;;;;32.58;29.27;;;;;;;;;;5031550;28;20214;-61
2023/06/21 09:04:31;;;;;;;30.67;27.65;;;;;;;;;;5029895;28;20266;-61
2023/06/21 09:06:56;;;;;;;30.27;27.17;;;;;;;;;;5031543;28;20215;-61
2023/06/21 09:09:23;;;;;;;27.70;25.05;;;;;;;;;;5017692;28;20207;-62
2023/06/21 09:11:48;;;;;;;28.10;25.17;;;;;;;;;;5011335;28;20216;-61
2023/06/21 09:14:14;;;;;;;27.75;25.05;;;;;;;;;;5011496;28;20219;-61
2023/06/21 09:16:39;;;;;;;26.00;23.42;;;;;;;;;;5011796;28;20232;-61
2023/06/21 09:19:04;;;;;;;25.08;22.67;;;;;;;;;;5011155;28;20216;-61
2023/06/21 09:21:30;;;;;;;25.00;22.55;;;;;;;;;;5011838;28;20215;-61
2023/06/21 09:23:55;;;;;;;24.42;22.00;;;;;;;;;;5010814;28;20216;-61
2023/06/21 09:26:21;;;;;;;22.60;20.40;;;;;;;;;;5010978;28;20219;-61
2023/06/21 09:28:47;;;;;;;21.23;19.23;;;;;;;;;;5010782;28;20568;-61
2023/06/21 09:31:12;;;;;;;19.95;17.85;;;;;;;;;;5011472;28;20591;-61
2023/06/21 09:33:37;;;;;;;21.60;19.38;;;;;;;;;;5011322;28;20239;-60
2023/06/21 09:36:04;;;;;;;20.17;18.25;;;;;;;;;;5011191;28;20220;-62
2023/06/21 09:38:32;;;;;;;20.73;18.63;;;;;;;;;;5014478;28;20659;-61
2023/06/21 09:40:58;;;;;;;19.08;17.27;;;;;;;;;;5015336;28;20282;-61
2023/06/21 09:43:23;;;;;;;14.48;12.00;;;;;;;;;;5015179;28;20200;-61
2023/06/21 09:46:03;;;;;;;12.82;11.52;;;;;;;;;;5014594;28;20327;-61
2023/06/21 09:48:30;;;;;;;12.25;10.77;;;;;;;;;;5014912;28;20230;-61
2023/06/21 09:50:55;;;;;;;13.00;11.57;;;;;;;;;;5015315;28;20216;-61
2023/06/21 09:53:22;;;;;;;15.07;13.55;;;;;;;;;;5013877;28;20299;-61
2023/06/21 09:55:47;;;;;;;14.23;12.85;;;;;;;;;;5024892;28;20246;-61
2023/06/21 09:58:14;;;;;;;15.77;12.23;;;;;;;;;;5034654;28;20235;-61
2023/06/21 10:00:39;;;;;;;15.65;13.38;;;;;;;;;;5032815;28;20226;-61
2023/06/21 10:03:04;;;;;;;14.45;13.05;;;;;;;;;;5033171;28;20295;-61
2023/06/21 10:05:30;;;;;;;13.35;12.10;;;;;;;;;;5033666;28;20250;-61
2023/06/21 10:07:56;;;;;;;14.82;13.32;;;;;;;;;;5033219;28;20637;-61
2023/06/21 10:10:22;;;;;;;11.05;9.90;;;;;;;;;;5014675;28;20213;-61
2023/06/21 10:12:51;;;;;;;7.03;4.13;;;;;;;;;;5013699;28;20220;-61
2023/06/21 10:15:18;;;;;;;6.90;5.47;;;;;;;;;;5002388;28;20240;-61
2023/06/21 10:17:43;;;;;;;7.95;4.97;;;;;;;;;;5014755;28;20216;-61
2023/06/21 10:20:09;;;;;;;6.50;3.78;;;;;;;;;;5013257;28;20576;-61
2023/06/21 10:22:34;;;;;;;6.32;3.70;;;;;;;;;;5014055;28;20234;-61
2023/06/21 10:24:59;;;;;;;4.85;3.00;;;;;;;;;;5013267;28;20209;-61
2023/06/21 10:27:25;;;;;;;8.60;6.30;;;;;;;;;;5014350;28;20228;-61
2023/06/21 10:29:57;;;;;;;7.22;5.80;;;;;;;;;;5013981;28;20219;-61
2023/06/21 10:32:23;;;;;;;5.95;3.90;;;;;;;;;;5012734;28;20290;-61
2023/06/21 10:34:52;;;;;;;5.20;2.95;;;;;;;;;;5013861;28;20255;-61
2023/06/21 10:37:21;;;;;;;6.00;4.00;;;;;;;;;;5012627;28;20275;-61
2023/06/21 10:39:47;;;;;;;6.78;4.78;;;;;;;;;;5014381;28;20244;-61
2023/06/21 10:42:12;;;;;;;9.07;5.47;;;;;;;;;;5013129;28;20252;-61
2023/06/21 10:44:38;;;;;;;7.10;4.55;;;;;;;;;;5013208;28;20374;-61
2023/06/21 10:47:03;;;;;;;7.72;4.75;;;;;;;;;;5013607;28;20221;-61
2023/06/21 10:49:28;;;;;;;6.25;5.00;;;;;;;;;;5012380;28;20219;-61
2023/06/21 10:51:54;;;;;;;8.07;5.15;;;;;;;;;;5012989;28;20219;-61
2023/06/21 10:54:20;;;;;;;7.55;4.97;;;;;;;;;;5013487;28;20219;-60
2023/06/21 10:56:45;;;;;;;8.35;4.20;;;;;;;;;;5030959;28;20223;-61
2023/06/21 10:59:11;;;;;;;7.25;4.75;;;;;;;;;;5033469;28;20274;-61
2023/06/21 11:01:36;;;;;;;6.80;3.78;;;;;;;;;;5033554;28;20220;-61
2023/06/21 11:04:02;;;;;;;6.35;3.92;;;;;;;;;;5031311;28;20675;-61
2023/06/21 11:06:29;;;;;;;7.45;4.57;;;;;;;;;;5032446;28;20675;-61
2023/06/21 11:08:55;;;;;;;8.18;4.60;;;;;;;;;;5024533;28;20243;-61
2023/06/21 11:11:29;;;;;;;5.57;3.50;;;;;;;;;;5011417;28;20216;-61
2023/06/21 11:13:54;;;;;;;5.40;3.20;;;;;;;;;;5013545;28;20316;-61
2023/06/21 11:16:19;;;;;;;6.15;3.58;;;;;;;;;;5013239;28;20287;-61
2023/06/21 11:18:48;;;;;;;6.80;3.20;;;;;;;;;;5012888;28;20240;-61
2023/06/21 11:21:13;;;;;;;5.60;3.10;;;;;;;;;;5013300;28;20754;-61
2023/06/21 11:23:51;;;;;;;4.90;2.92;;;;;;;;;;5013680;28;20295;-61
2023/06/21 11:26:17;;;;;;;7.85;2.80;;;;;;;;;;5013075;28;20216;-62
2023/06/21 11:28:43;;;;;;;5.55;2.88;;;;;;;;;;5013466;28;20220;-61
2023/06/21 11:31:09;;;;;;;4.82;2.72;;;;;;;;;;5012438;28;20227;-61
2023/06/21 11:33:53;;;;;;;7.13;3.83;;;;;;;;;;5013269;28;20617;-61
2023/06/21 11:36:21;;;;;;;6.43;4.07;;;;;;;;;;5012889;28;20213;-60
2023/06/21 11:38:48;;;;;;;11.60;4.15;;;;;;;;;;5012671;28;20212;-61
2023/06/21 11:41:32;;;;;;;5.35;3.38;;;;;;;;;;5012855;28;20826;-61
2023/06/21 11:43:57;;;;;;;5.45;3.67;;;;;;;;;;5019040;28;20223;-61
2023/06/21 11:46:23;;;;;;;6.38;3.88;;;;;;;;;;5031810;28;20215;-61
2023/06/21 11:48:48;;;;;;;7.60;4.50;;;;;;;;;;5032749;28;20238;-61
2023/06/21 11:51:13;;;;;;;9.63;4.60;;;;;;;;;;5032512;28;20298;-61
2023/06/21 11:53:39;;;;;;;7.70;4.32;;;;;;;;;;5031957;28;20241;-61
2023/06/21 11:56:05;;;;;;;5.75;4.40;;;;;;;;;;5020033;28;20211;-61
2023/06/21 11:58:30;;;;;;;5.18;3.90;;;;;;;;;;5013305;28;20208;-61
2023/06/21 12:00:55;;;;;;;5.60;3.85;;;;;;;;;;5012145;28;20212;-61
2023/06/21 12:03:22;;;;;;;5.43;3.35;;;;;;;;;;5012461;28;20216;-61
2023/06/21 12:05:48;;;;;;;4.93;3.67;;;;;;;;;;5012710;28;20579;-61
2023/06/21 12:08:14;;;;;;;6.80;3.70;;;;;;;;;;5014878;28;20212;-61
2023/06/21 12:10:40;;;;;;;5.88;3.50;;;;;;;;;;5032414;28;20734;-61
2023/06/21 12:13:05;;;;;;;6.80;3.72;;;;;;;;;;5027034;28;20248;-61
2023/06/21 12:15:31;;;;;;;6.95;4.10;;;;;;;;;;5012663;28;20228;-61
2023/06/21 12:17:56;;;;;;;7.25;3.80;;;;;;;;;;5012893;28;20266;-61
2023/06/21 12:20:21;;;;;;;6.13;3.70;;;;;;;;;;5011393;28;20622;-61
2023/06/21 12:22:47;;;;;;;6.25;4.07;;;;;;;;;;5012596;28;20668;-61
2023/06/21 12:25:12;;;;;;;11.65;3.97;;;;;;;;;;5012081;28;20235;-61
2023/06/21 12:27:37;;;;;;;5.63;3.13;;;;;;;;;;5011796;28;20234;-61
2023/06/21 12:30:03;;;;;;;4.97;3.03;;;;;;;;;;5018579;28;20216;-61
2023/06/21 12:32:28;;;;;;;5.20;2.97;;;;;;;;;;5032391;28;20207;-61
2023/06/21 12:35:00;;;;;;;5.80;2.92;;;;;;;;;;5031511;28;20211;-61
2023/06/21 12:37:25;;;;;;;4.68;2.83;;;;;;;;;;5031980;28;20299;-60
2023/06/21 12:39:52;;;;;;;5.38;3.30;;;;;;;;;;5032094;28;20235;-61
2023/06/21 12:42:17;;;;;;;6.80;2.90;;;;;;;;;;5030730;28;20245;-61
2023/06/21 12:44:43;;;;;;;6.15;3.17;;;;;;;;;;5032289;28;20207;-61
2023/06/21 12:47:08;;;;;;;5.65;3.10;;;;;;;;;;5031477;28;20231;-61
2023/06/21 12:49:33;;;;;;;4.85;3.10;;;;;;;;;;5031288;28;20242;-61
2023/06/21 12:52:00;;;;;;;4.85;2.80;;;;;;;;;;5031846;28;20610;-61
2023/06/21 12:54:26;;;;;;;3.83;2.95;;;;;;;;;;5031845;28;20246;-61
2023/06/21 12:56:55;;;;;;;4.57;2.58;;;;;;;;;;5012572;28;20251;-61
2023/06/21 12:59:21;;;;;;;5.57;3.20;;;;;;;;;;5010752;28;20227;-61
2023/06/21 13:01:46;;;;;;;4.35;2.83;;;;;;;;;;5012303;28;20212;-61
2023/06/21 13:04:12;;;;;;;5.18;3.10;;;;;;;;;;5010887;28;20748;-61
2023/06/21 13:06:38;;;;;;;6.88;2.90;;;;;;;;;;5012131;28;20216;-61
2023/06/21 13:09:03;;;;;;;3.85;2.60;;;;;;;;;;5021712;28;20219;-61
2023/06/21 13:11:29;;;;;;;4.00;2.47;;;;;;;;;;5031366;28;20236;-61
2023/06/21 13:13:54;;;;;;;5.60;2.30;;;;;;;;;;5024774;28;20576;-61
2023/06/21 13:16:19;;;;;;;5.60;2.70;;;;;;;;;;4996899;28;20298;-61
2023/06/21 13:18:46;;;;;;;7.63;2.55;;;;;;;;;;4996293;28;20212;-61
2023/06/21 13:21:11;;;;;;;4.10;2.33;;;;;;;;;;4995769;28;20304;-61
2023/06/21 13:23:37;;;;;;;4.20;2.33;;;;;;;;;;4994372;28;20639;-61
2023/06/21 13:26:02;;;;;;;7.35;2.83;;;;;;;;;;4995734;28;20243;-61
2023/06/21 13:28:27;;;;;;;5.57;2.50;;;;;;;;;;4996279;28;20232;-61
2023/06/21 13:30:53;;;;;;;3.85;2.63;;;;;;;;;;4995634;28;20213;-61
2023/06/21 13:33:18;;;;;;;4.05;2.28;;;;;;;;;;4995823;28;20227;-61
2023/06/21 13:35:43;;;;;;;3.40;2.33;;;;;;;;;;4995913;28;20572;-60
2023/06/21 13:38:09;;;;;;;5.07;2.70;;;;;;;;;;4994858;28;20322;-61
2023/06/21 13:40:34;;;;;;;4.63;2.20;;;;;;;;;;4996053;28;20315;-61
2023/06/21 13:43:00;;;;;;;5.32;2.67;;;;;;;;;;4995893;28;20217;-61
2023/06/21 13:45:25;;;;;;;4.28;2.28;;;;;;;;;;4994481;28;20209;-61
2023/06/21 13:47:51;;;;;;;5.00;2.17;;;;;;;;;;4995763;28;20245;-61
2023/06/21 13:50:16;;;;;;;4.30;2.10;;;;;;;;;;4995135;28;20731;-61
2023/06/21 13:52:41;;;;;;;6.28;2.33;;;;;;;;;;4995127;28;20639;-61
2023/06/21 13:55:10;;;;;;;3.92;2.40;;;;;;;;;;5003674;28;20629;-61
2023/06/21 13:57:40;;;;;;;6.45;2.50;;;;;;;;;;5035088;28;20329;-60
2023/06/21 14:00:06;;;;;;;3.80;2.22;;;;;;;;;;5034063;28;20671;-61
2023/06/21 14:02:32;;;;;;;5.20;2.25;;;;;;;;;;5035037;28;20214;-61
2023/06/21 14:04:57;;;;;;;5.72;2.50;;;;;;;;;;5034916;28;20568;-61
2023/06/21 14:07:22;;;;;;;4.82;2.60;;;;;;;;;;5033622;28;20580;-61
2023/06/21 14:09:48;;;;;;;6.53;2.00;;;;;;;;;;5018833;28;20576;-61
2023/06/21 14:12:13;;;;;;;2.97;1.90;;;;;;;;;;5014588;28;20684;-61
2023/06/21 14:14:41;;;;;;;4.15;1.85;;;;;;;;;;5014035;28;20351;-61
2023/06/21 14:17:06;;;;;;;5.38;2.08;;;;;;;;;;5014345;28;20692;-61